sensor_id;sensor_type;location;lat;lon;timestamp;P1;durP1;ratioP1;P2;durP2;ratioP2
16824;SDS011;8529;48.108;-1.706;2023-05-10T00:02:00;5.68;;;2.15;;
16824;SDS011;8529;48.108;-1.706;2023-05-10T00:04:26;9.60;;;2.08;;
16824;SDS011;8529;48.108;-1.706;2023-05-10T00:06:53;10.52;;;2.00;;
16824;SDS011;8529;48.108;-1.706;2023-05-10T00:09:20;20.48;;;4.35;;
16824;SDS011;8529;48.108;-1.706;2023-05-10T00:11:49;12.68;;;2.63;;
16824;SDS011;8529;48.108;-1.706;2023-05-10T00:14:16;9.63;;;2.28;;
16824;SDS011;8529;48.108;-1.706;2023-05-10T00:16:43;8.48;;;2.00;;
16824;SDS011;8529;48.108;-1.706;2023-05-10T00:19:10;10.90;;;2.33;;
16824;SDS011;8529;48.108;-1.706;2023-05-10T00:21:37;6.10;;;1.63;;
16824;SDS011;8529;48.108;-1.706;2023-05-10T00:24:04;10.32;;;2.47;;
16824;SDS011;8529;48.108;-1.706;2023-05-10T00:26:31;7.43;;;2.03;;
16824;SDS011;8529;48.108;-1.706;2023-05-10T00:28:59;6.03;;;2.05;;
16824;SDS011;8529;48.108;-1.706;2023-05-10T00:31:26;8.52;;;1.88;;
16824;SDS011;8529;48.108;-1.706;2023-05-10T00:33:53;10.90;;;2.92;;
16824;SDS011;8529;48.108;-1.706;2023-05-10T00:36:20;8.93;;;2.25;;
16824;SDS011;8529;48.108;-1.706;2023-05-10T00:38:47;9.23;;;2.03;;
16824;SDS011;8529;48.108;-1.706;2023-05-10T00:41:14;5.95;;;1.80;;
16824;SDS011;8529;48.108;-1.706;2023-05-10T00:43:41;8.57;;;2.00;;
16824;SDS011;8529;48.108;-1.706;2023-05-10T00:46:09;7.35;;;1.80;;
16824;SDS011;8529;48.108;-1.706;2023-05-10T00:48:37;12.55;;;2.03;;
16824;SDS011;8529;48.108;-1.706;2023-05-10T00:51:04;9.07;;;2.20;;
16824;SDS011;8529;48.108;-1.706;2023-05-10T00:53:31;10.13;;;1.85;;
16824;SDS011;8529;48.108;-1.706;2023-05-10T00:55:58;11.57;;;2.40;;
16824;SDS011;8529;48.108;-1.706;2023-05-10T00:58:25;9.35;;;2.28;;
16824;SDS011;8529;48.108;-1.706;2023-05-10T01:00:54;12.88;;;2.53;;
16824;SDS011;8529;48.108;-1.706;2023-05-10T01:03:23;8.68;;;2.33;;
16824;SDS011;8529;48.108;-1.706;2023-05-10T01:05:51;6.45;;;1.92;;
16824;SDS011;8529;48.108;-1.706;2023-05-10T01:08:17;8.13;;;2.13;;
16824;SDS011;8529;48.108;-1.706;2023-05-10T01:10:45;12.32;;;2.97;;
16824;SDS011;8529;48.108;-1.706;2023-05-10T01:13:14;8.95;;;2.38;;
16824;SDS011;8529;48.108;-1.706;2023-05-10T01:15:49;11.50;;;2.55;;
16824;SDS011;8529;48.108;-1.706;2023-05-10T01:18:16;8.13;;;1.73;;
16824;SDS011;8529;48.108;-1.706;2023-05-10T01:20:48;11.45;;;2.22;;
16824;SDS011;8529;48.108;-1.706;2023-05-10T01:23:31;7.57;;;2.03;;
16824;SDS011;8529;48.108;-1.706;2023-05-10T01:26:13;15.27;;;2.28;;
16824;SDS011;8529;48.108;-1.706;2023-05-10T01:29:11;14.13;;;2.03;;
16824;SDS011;8529;48.108;-1.706;2023-05-10T01:34:53;10.48;;;2.33;;
16824;SDS011;8529;48.108;-1.706;2023-05-10T01:37:27;7.47;;;2.40;;
16824;SDS011;8529;48.108;-1.706;2023-05-10T01:40:00;14.57;;;2.67;;
16824;SDS011;8529;48.108;-1.706;2023-05-10T01:42:36;9.02;;;1.70;;
16824;SDS011;8529;48.108;-1.706;2023-05-10T01:45:07;14.15;;;2.45;;
16824;SDS011;8529;48.108;-1.706;2023-05-10T01:47:42;11.88;;;2.40;;
16824;SDS011;8529;48.108;-1.706;2023-05-10T01:50:15;7.90;;;2.95;;
16824;SDS011;8529;48.108;-1.706;2023-05-10T01:52:44;11.05;;;2.10;;
16824;SDS011;8529;48.108;-1.706;2023-05-10T01:55:17;8.07;;;2.20;;
16824;SDS011;8529;48.108;-1.706;2023-05-10T01:57:46;8.38;;;2.20;;
16824;SDS011;8529;48.108;-1.706;2023-05-10T02:00:17;12.85;;;2.40;;
16824;SDS011;8529;48.108;-1.706;2023-05-10T02:02:48;12.50;;;2.20;;
16824;SDS011;8529;48.108;-1.706;2023-05-10T02:05:16;10.00;;;3.25;;
16824;SDS011;8529;48.108;-1.706;2023-05-10T02:07:44;9.40;;;2.15;;
16824;SDS011;8529;48.108;-1.706;2023-05-10T02:10:12;12.77;;;2.80;;
16824;SDS011;8529;48.108;-1.706;2023-05-10T02:12:41;12.20;;;2.58;;
16824;SDS011;8529;48.108;-1.706;2023-05-10T02:15:10;9.93;;;1.98;;
16824;SDS011;8529;48.108;-1.706;2023-05-10T02:17:38;17.13;;;2.65;;
16824;SDS011;8529;48.108;-1.706;2023-05-10T02:20:09;11.68;;;2.22;;
16824;SDS011;8529;48.108;-1.706;2023-05-10T02:22:37;9.32;;;2.42;;
16824;SDS011;8529;48.108;-1.706;2023-05-10T02:25:06;12.20;;;2.90;;
16824;SDS011;8529;48.108;-1.706;2023-05-10T02:27:35;9.27;;;2.40;;
16824;SDS011;8529;48.108;-1.706;2023-05-10T02:30:03;9.27;;;2.33;;
16824;SDS011;8529;48.108;-1.706;2023-05-10T02:32:32;10.95;;;2.35;;
16824;SDS011;8529;48.108;-1.706;2023-05-10T02:35:01;9.45;;;2.70;;
16824;SDS011;8529;48.108;-1.706;2023-05-10T02:37:31;11.35;;;2.70;;
16824;SDS011;8529;48.108;-1.706;2023-05-10T02:39:59;8.25;;;2.30;;
16824;SDS011;8529;48.108;-1.706;2023-05-10T02:42:28;9.35;;;2.70;;
16824;SDS011;8529;48.108;-1.706;2023-05-10T02:44:59;9.85;;;2.40;;
16824;SDS011;8529;48.108;-1.706;2023-05-10T02:47:27;12.75;;;2.63;;
16824;SDS011;8529;48.108;-1.706;2023-05-10T02:49:54;11.07;;;3.35;;
16824;SDS011;8529;48.108;-1.706;2023-05-10T02:52:28;12.98;;;2.40;;
16824;SDS011;8529;48.108;-1.706;2023-05-10T02:55:06;7.85;;;2.22;;
16824;SDS011;8529;48.108;-1.706;2023-05-10T02:57:38;8.10;;;2.92;;
16824;SDS011;8529;48.108;-1.706;2023-05-10T03:00:09;10.60;;;2.83;;
16824;SDS011;8529;48.108;-1.706;2023-05-10T03:02:37;13.32;;;2.50;;
16824;SDS011;8529;48.108;-1.706;2023-05-10T03:05:04;16.70;;;3.42;;
16824;SDS011;8529;48.108;-1.706;2023-05-10T03:07:32;7.05;;;2.65;;
16824;SDS011;8529;48.108;-1.706;2023-05-10T03:10:00;14.98;;;2.90;;
16824;SDS011;8529;48.108;-1.706;2023-05-10T03:12:31;9.43;;;2.42;;
16824;SDS011;8529;48.108;-1.706;2023-05-10T03:15:09;12.35;;;3.00;;
16824;SDS011;8529;48.108;-1.706;2023-05-10T03:17:41;15.43;;;3.58;;
16824;SDS011;8529;48.108;-1.706;2023-05-10T03:20:16;16.83;;;3.05;;
16824;SDS011;8529;48.108;-1.706;2023-05-10T03:22:51;9.10;;;2.70;;
16824;SDS011;8529;48.108;-1.706;2023-05-10T03:25:21;14.50;;;3.20;;
16824;SDS011;8529;48.108;-1.706;2023-05-10T03:27:50;11.63;;;2.70;;
16824;SDS011;8529;48.108;-1.706;2023-05-10T03:30:18;10.85;;;2.90;;
16824;SDS011;8529;48.108;-1.706;2023-05-10T03:32:46;15.07;;;3.17;;
16824;SDS011;8529;48.108;-1.706;2023-05-10T03:35:13;14.20;;;3.28;;
16824;SDS011;8529;48.108;-1.706;2023-05-10T03:37:40;9.77;;;2.85;;
16824;SDS011;8529;48.108;-1.706;2023-05-10T03:40:08;12.55;;;2.90;;
16824;SDS011;8529;48.108;-1.706;2023-05-10T03:42:35;15.30;;;2.88;;
16824;SDS011;8529;48.108;-1.706;2023-05-10T03:45:02;12.00;;;3.55;;
16824;SDS011;8529;48.108;-1.706;2023-05-10T03:47:30;14.18;;;2.80;;
16824;SDS011;8529;48.108;-1.706;2023-05-10T03:49:57;16.55;;;2.92;;
16824;SDS011;8529;48.108;-1.706;2023-05-10T03:52:24;12.18;;;2.47;;
16824;SDS011;8529;48.108;-1.706;2023-05-10T03:54:51;11.50;;;2.67;;
16824;SDS011;8529;48.108;-1.706;2023-05-10T03:57:19;15.50;;;3.22;;
16824;SDS011;8529;48.108;-1.706;2023-05-10T03:59:46;8.82;;;2.60;;
16824;SDS011;8529;48.108;-1.706;2023-05-10T04:02:13;9.82;;;2.40;;
16824;SDS011;8529;48.108;-1.706;2023-05-10T04:04:40;14.07;;;3.00;;
16824;SDS011;8529;48.108;-1.706;2023-05-10T04:07:06;13.80;;;3.25;;
16824;SDS011;8529;48.108;-1.706;2023-05-10T04:09:35;14.27;;;2.70;;
16824;SDS011;8529;48.108;-1.706;2023-05-10T04:12:02;7.43;;;2.95;;
16824;SDS011;8529;48.108;-1.706;2023-05-10T04:14:30;9.18;;;2.65;;
16824;SDS011;8529;48.108;-1.706;2023-05-10T04:16:57;13.13;;;2.67;;
16824;SDS011;8529;48.108;-1.706;2023-05-10T04:19:28;14.07;;;3.03;;
16824;SDS011;8529;48.108;-1.706;2023-05-10T04:21:55;11.88;;;3.10;;
16824;SDS011;8529;48.108;-1.706;2023-05-10T04:24:22;9.85;;;2.05;;
16824;SDS011;8529;48.108;-1.706;2023-05-10T04:26:49;15.02;;;3.67;;
16824;SDS011;8529;48.108;-1.706;2023-05-10T04:29:16;13.45;;;2.85;;
16824;SDS011;8529;48.108;-1.706;2023-05-10T04:31:44;10.95;;;2.15;;
16824;SDS011;8529;48.108;-1.706;2023-05-10T04:34:11;10.93;;;2.85;;
16824;SDS011;8529;48.108;-1.706;2023-05-10T04:36:38;10.15;;;2.45;;
16824;SDS011;8529;48.108;-1.706;2023-05-10T04:39:05;10.45;;;2.30;;
16824;SDS011;8529;48.108;-1.706;2023-05-10T04:41:32;7.60;;;2.42;;
16824;SDS011;8529;48.108;-1.706;2023-05-10T04:43:59;14.48;;;2.70;;
16824;SDS011;8529;48.108;-1.706;2023-05-10T04:46:26;5.72;;;2.30;;
16824;SDS011;8529;48.108;-1.706;2023-05-10T04:48:54;9.98;;;2.40;;
16824;SDS011;8529;48.108;-1.706;2023-05-10T04:51:21;11.10;;;3.50;;
16824;SDS011;8529;48.108;-1.706;2023-05-10T04:53:48;12.52;;;2.45;;
16824;SDS011;8529;48.108;-1.706;2023-05-10T04:56:15;7.82;;;2.17;;
16824;SDS011;8529;48.108;-1.706;2023-05-10T04:58:42;13.85;;;2.55;;
16824;SDS011;8529;48.108;-1.706;2023-05-10T05:01:09;10.70;;;2.58;;
16824;SDS011;8529;48.108;-1.706;2023-05-10T05:03:36;12.23;;;3.15;;
16824;SDS011;8529;48.108;-1.706;2023-05-10T05:06:04;13.40;;;3.17;;
16824;SDS011;8529;48.108;-1.706;2023-05-10T05:08:32;10.52;;;2.75;;
16824;SDS011;8529;48.108;-1.706;2023-05-10T05:10:58;17.85;;;3.03;;
16824;SDS011;8529;48.108;-1.706;2023-05-10T05:13:25;15.13;;;3.25;;
16824;SDS011;8529;48.108;-1.706;2023-05-10T05:15:52;10.32;;;2.63;;
16824;SDS011;8529;48.108;-1.706;2023-05-10T05:18:19;12.70;;;3.35;;
16824;SDS011;8529;48.108;-1.706;2023-05-10T05:20:46;11.95;;;2.30;;
16824;SDS011;8529;48.108;-1.706;2023-05-10T05:23:14;10.52;;;2.78;;
16824;SDS011;8529;48.108;-1.706;2023-05-10T05:25:41;12.60;;;3.13;;
16824;SDS011;8529;48.108;-1.706;2023-05-10T05:28:08;15.52;;;3.45;;
16824;SDS011;8529;48.108;-1.706;2023-05-10T05:30:35;15.32;;;3.35;;
16824;SDS011;8529;48.108;-1.706;2023-05-10T05:33:02;11.15;;;3.05;;
16824;SDS011;8529;48.108;-1.706;2023-05-10T05:35:29;12.93;;;3.03;;
16824;SDS011;8529;48.108;-1.706;2023-05-10T05:37:56;10.95;;;2.63;;
16824;SDS011;8529;48.108;-1.706;2023-05-10T05:40:24;12.70;;;3.22;;
16824;SDS011;8529;48.108;-1.706;2023-05-10T05:42:51;19.17;;;3.15;;
16824;SDS011;8529;48.108;-1.706;2023-05-10T05:45:18;9.35;;;2.85;;
16824;SDS011;8529;48.108;-1.706;2023-05-10T05:47:46;15.70;;;2.50;;
16824;SDS011;8529;48.108;-1.706;2023-05-10T05:50:13;13.93;;;3.40;;
16824;SDS011;8529;48.108;-1.706;2023-05-10T05:52:40;13.07;;;3.75;;
16824;SDS011;8529;48.108;-1.706;2023-05-10T05:55:07;13.55;;;3.72;;
16824;SDS011;8529;48.108;-1.706;2023-05-10T05:57:35;12.65;;;3.03;;
16824;SDS011;8529;48.108;-1.706;2023-05-10T06:00:02;10.70;;;3.00;;
16824;SDS011;8529;48.108;-1.706;2023-05-10T06:02:30;14.43;;;3.33;;
16824;SDS011;8529;48.108;-1.706;2023-05-10T06:04:56;5.95;;;2.30;;
16824;SDS011;8529;48.108;-1.706;2023-05-10T06:07:23;13.98;;;2.75;;
16824;SDS011;8529;48.108;-1.706;2023-05-10T06:09:50;14.10;;;3.28;;
16824;SDS011;8529;48.108;-1.706;2023-05-10T06:12:17;15.02;;;3.00;;
16824;SDS011;8529;48.108;-1.706;2023-05-10T06:14:45;13.10;;;3.10;;
16824;SDS011;8529;48.108;-1.706;2023-05-10T06:17:12;8.60;;;2.53;;
16824;SDS011;8529;48.108;-1.706;2023-05-10T06:19:39;12.75;;;3.00;;
16824;SDS011;8529;48.108;-1.706;2023-05-10T06:22:06;11.00;;;2.53;;
16824;SDS011;8529;48.108;-1.706;2023-05-10T06:24:33;12.55;;;2.65;;
16824;SDS011;8529;48.108;-1.706;2023-05-10T06:27:00;10.40;;;3.03;;
16824;SDS011;8529;48.108;-1.706;2023-05-10T06:29:27;12.32;;;2.92;;
16824;SDS011;8529;48.108;-1.706;2023-05-10T06:31:55;10.52;;;2.80;;
16824;SDS011;8529;48.108;-1.706;2023-05-10T06:34:22;10.25;;;2.65;;
16824;SDS011;8529;48.108;-1.706;2023-05-10T06:36:49;14.32;;;3.05;;
16824;SDS011;8529;48.108;-1.706;2023-05-10T06:39:16;10.10;;;2.47;;
16824;SDS011;8529;48.108;-1.706;2023-05-10T06:41:43;16.65;;;2.92;;
16824;SDS011;8529;48.108;-1.706;2023-05-10T06:44:10;11.73;;;2.70;;
16824;SDS011;8529;48.108;-1.706;2023-05-10T06:46:38;12.20;;;3.28;;
16824;SDS011;8529;48.108;-1.706;2023-05-10T06:49:06;11.10;;;2.70;;
16824;SDS011;8529;48.108;-1.706;2023-05-10T06:51:33;10.45;;;2.63;;
16824;SDS011;8529;48.108;-1.706;2023-05-10T06:54:00;17.35;;;4.43;;
16824;SDS011;8529;48.108;-1.706;2023-05-10T06:56:27;13.68;;;4.18;;
16824;SDS011;8529;48.108;-1.706;2023-05-10T06:58:54;9.95;;;4.47;;
16824;SDS011;8529;48.108;-1.706;2023-05-10T07:01:21;13.30;;;4.15;;
16824;SDS011;8529;48.108;-1.706;2023-05-10T07:03:48;16.70;;;3.20;;
16824;SDS011;8529;48.108;-1.706;2023-05-10T07:06:17;12.15;;;2.97;;
16824;SDS011;8529;48.108;-1.706;2023-05-10T07:08:43;11.13;;;2.88;;
16824;SDS011;8529;48.108;-1.706;2023-05-10T07:11:10;12.48;;;3.05;;
16824;SDS011;8529;48.108;-1.706;2023-05-10T07:13:37;9.43;;;2.53;;
16824;SDS011;8529;48.108;-1.706;2023-05-10T07:16:08;9.77;;;2.90;;
16824;SDS011;8529;48.108;-1.706;2023-05-10T07:18:36;12.10;;;2.60;;
16824;SDS011;8529;48.108;-1.706;2023-05-10T07:21:03;10.85;;;2.90;;
16824;SDS011;8529;48.108;-1.706;2023-05-10T07:23:31;10.07;;;2.85;;
16824;SDS011;8529;48.108;-1.706;2023-05-10T07:25:58;11.05;;;2.47;;
16824;SDS011;8529;48.108;-1.706;2023-05-10T07:28:25;9.50;;;2.70;;
16824;SDS011;8529;48.108;-1.706;2023-05-10T07:30:52;11.75;;;2.63;;
16824;SDS011;8529;48.108;-1.706;2023-05-10T07:33:19;8.38;;;2.28;;
16824;SDS011;8529;48.108;-1.706;2023-05-10T07:35:45;10.82;;;2.53;;
16824;SDS011;8529;48.108;-1.706;2023-05-10T07:38:12;7.95;;;2.47;;
16824;SDS011;8529;48.108;-1.706;2023-05-10T07:40:41;8.45;;;2.58;;
16824;SDS011;8529;48.108;-1.706;2023-05-10T07:43:08;7.90;;;3.03;;
16824;SDS011;8529;48.108;-1.706;2023-05-10T07:45:34;10.60;;;2.85;;
16824;SDS011;8529;48.108;-1.706;2023-05-10T07:48:01;10.82;;;2.42;;
16824;SDS011;8529;48.108;-1.706;2023-05-10T07:50:29;7.57;;;2.08;;
16824;SDS011;8529;48.108;-1.706;2023-05-10T07:52:56;7.18;;;2.53;;
16824;SDS011;8529;48.108;-1.706;2023-05-10T07:55:23;11.82;;;3.08;;
16824;SDS011;8529;48.108;-1.706;2023-05-10T07:57:51;10.85;;;2.70;;
16824;SDS011;8529;48.108;-1.706;2023-05-10T08:00:18;10.40;;;2.42;;
16824;SDS011;8529;48.108;-1.706;2023-05-10T08:02:46;5.30;;;2.25;;
16824;SDS011;8529;48.108;-1.706;2023-05-10T08:05:14;10.05;;;2.63;;
16824;SDS011;8529;48.108;-1.706;2023-05-10T08:07:40;9.68;;;2.40;;
16824;SDS011;8529;48.108;-1.706;2023-05-10T08:10:08;7.57;;;2.55;;
16824;SDS011;8529;48.108;-1.706;2023-05-10T08:12:36;6.25;;;2.03;;
16824;SDS011;8529;48.108;-1.706;2023-05-10T08:15:05;6.05;;;2.75;;
16824;SDS011;8529;48.108;-1.706;2023-05-10T08:17:33;12.80;;;3.42;;
16824;SDS011;8529;48.108;-1.706;2023-05-10T08:20:00;10.50;;;2.60;;
16824;SDS011;8529;48.108;-1.706;2023-05-10T08:22:27;9.50;;;3.00;;
16824;SDS011;8529;48.108;-1.706;2023-05-10T08:24:54;12.10;;;2.92;;
16824;SDS011;8529;48.108;-1.706;2023-05-10T08:27:21;8.27;;;2.70;;
16824;SDS011;8529;48.108;-1.706;2023-05-10T08:29:47;9.07;;;2.70;;
16824;SDS011;8529;48.108;-1.706;2023-05-10T08:32:16;7.28;;;2.40;;
16824;SDS011;8529;48.108;-1.706;2023-05-10T08:34:43;13.80;;;2.72;;
16824;SDS011;8529;48.108;-1.706;2023-05-10T08:37:09;9.10;;;3.35;;
16824;SDS011;8529;48.108;-1.706;2023-05-10T08:39:38;12.68;;;3.08;;
16824;SDS011;8529;48.108;-1.706;2023-05-10T08:42:05;11.05;;;2.70;;
16824;SDS011;8529;48.108;-1.706;2023-05-10T08:44:34;7.80;;;2.60;;
16824;SDS011;8529;48.108;-1.706;2023-05-10T08:47:02;6.28;;;2.10;;
16824;SDS011;8529;48.108;-1.706;2023-05-10T08:49:33;8.20;;;2.15;;
16824;SDS011;8529;48.108;-1.706;2023-05-10T08:52:02;13.13;;;2.47;;
16824;SDS011;8529;48.108;-1.706;2023-05-10T08:54:31;10.93;;;2.92;;
16824;SDS011;8529;48.108;-1.706;2023-05-10T08:56:58;4.97;;;2.03;;
16824;SDS011;8529;48.108;-1.706;2023-05-10T08:59:25;8.90;;;3.03;;
16824;SDS011;8529;48.108;-1.706;2023-05-10T09:01:52;7.30;;;2.15;;
16824;SDS011;8529;48.108;-1.706;2023-05-10T09:04:21;11.98;;;2.30;;
16824;SDS011;8529;48.108;-1.706;2023-05-10T09:06:50;7.15;;;2.40;;
16824;SDS011;8529;48.108;-1.706;2023-05-10T09:09:17;7.15;;;2.47;;
16824;SDS011;8529;48.108;-1.706;2023-05-10T09:11:46;9.73;;;2.72;;
16824;SDS011;8529;48.108;-1.706;2023-05-10T09:14:13;8.50;;;2.70;;
16824;SDS011;8529;48.108;-1.706;2023-05-10T09:16:42;6.53;;;2.30;;
16824;SDS011;8529;48.108;-1.706;2023-05-10T09:19:09;7.90;;;2.30;;
16824;SDS011;8529;48.108;-1.706;2023-05-10T09:21:37;8.88;;;2.55;;
16824;SDS011;8529;48.108;-1.706;2023-05-10T09:24:06;11.65;;;3.65;;
16824;SDS011;8529;48.108;-1.706;2023-05-10T09:26:33;5.95;;;2.72;;
16824;SDS011;8529;48.108;-1.706;2023-05-10T09:29:01;7.07;;;2.40;;
16824;SDS011;8529;48.108;-1.706;2023-05-10T09:31:46;10.80;;;2.90;;
16824;SDS011;8529;48.108;-1.706;2023-05-10T09:34:16;10.20;;;2.90;;
16824;SDS011;8529;48.108;-1.706;2023-05-10T09:36:51;10.95;;;2.70;;
16824;SDS011;8529;48.108;-1.706;2023-05-10T09:39:20;4.88;;;2.40;;
16824;SDS011;8529;48.108;-1.706;2023-05-10T09:41:55;8.57;;;3.13;;
16824;SDS011;8529;48.108;-1.706;2023-05-10T09:44:23;15.43;;;3.72;;
16824;SDS011;8529;48.108;-1.706;2023-05-10T09:46:52;10.38;;;3.10;;
16824;SDS011;8529;48.108;-1.706;2023-05-10T09:49:19;6.15;;;2.53;;
16824;SDS011;8529;48.108;-1.706;2023-05-10T09:51:46;10.05;;;3.30;;
16824;SDS011;8529;48.108;-1.706;2023-05-10T09:54:15;9.18;;;3.38;;
16824;SDS011;8529;48.108;-1.706;2023-05-10T09:56:43;9.15;;;3.20;;
16824;SDS011;8529;48.108;-1.706;2023-05-10T09:59:11;10.52;;;3.13;;
16824;SDS011;8529;48.108;-1.706;2023-05-10T10:01:38;8.38;;;2.70;;
16824;SDS011;8529;48.108;-1.706;2023-05-10T10:04:06;5.65;;;2.45;;
16824;SDS011;8529;48.108;-1.706;2023-05-10T10:06:35;7.70;;;2.90;;
16824;SDS011;8529;48.108;-1.706;2023-05-10T10:09:03;8.65;;;2.92;;
16824;SDS011;8529;48.108;-1.706;2023-05-10T10:11:30;11.60;;;3.00;;
16824;SDS011;8529;48.108;-1.706;2023-05-10T10:13:59;9.63;;;3.10;;
16824;SDS011;8529;48.108;-1.706;2023-05-10T10:16:26;10.13;;;2.80;;
16824;SDS011;8529;48.108;-1.706;2023-05-10T10:18:54;7.32;;;2.70;;
16824;SDS011;8529;48.108;-1.706;2023-05-10T10:21:22;5.75;;;2.60;;
16824;SDS011;8529;48.108;-1.706;2023-05-10T10:23:49;7.90;;;2.90;;
16824;SDS011;8529;48.108;-1.706;2023-05-10T10:26:16;7.18;;;3.10;;
16824;SDS011;8529;48.108;-1.706;2023-05-10T10:28:47;4.18;;;2.38;;
16824;SDS011;8529;48.108;-1.706;2023-05-10T10:31:23;5.53;;;2.25;;
16824;SDS011;8529;48.108;-1.706;2023-05-10T10:34:03;10.65;;;3.25;;
16824;SDS011;8529;48.108;-1.706;2023-05-10T10:36:32;7.97;;;3.17;;
16824;SDS011;8529;48.108;-1.706;2023-05-10T10:39:08;9.25;;;2.92;;
16824;SDS011;8529;48.108;-1.706;2023-05-10T10:41:37;5.00;;;2.25;;
16824;SDS011;8529;48.108;-1.706;2023-05-10T10:47:23;10.63;;;2.90;;
16824;SDS011;8529;48.108;-1.706;2023-05-10T10:50:04;5.25;;;2.08;;
16824;SDS011;8529;48.108;-1.706;2023-05-10T10:52:33;5.60;;;1.92;;
16824;SDS011;8529;48.108;-1.706;2023-05-10T10:55:02;6.53;;;2.35;;
16824;SDS011;8529;48.108;-1.706;2023-05-10T10:57:41;3.63;;;2.00;;
16824;SDS011;8529;48.108;-1.706;2023-05-10T11:00:20;5.80;;;2.03;;
16824;SDS011;8529;48.108;-1.706;2023-05-10T11:02:51;4.22;;;1.75;;
16824;SDS011;8529;48.108;-1.706;2023-05-10T11:05:25;4.78;;;1.67;;
16824;SDS011;8529;48.108;-1.706;2023-05-10T11:08:11;5.30;;;1.73;;
16824;SDS011;8529;48.108;-1.706;2023-05-10T11:10:40;4.65;;;1.65;;
16824;SDS011;8529;48.108;-1.706;2023-05-10T11:13:17;5.53;;;1.50;;
16824;SDS011;8529;48.108;-1.706;2023-05-10T11:15:53;5.20;;;2.22;;
16824;SDS011;8529;48.108;-1.706;2023-05-10T11:18:24;3.28;;;1.60;;
16824;SDS011;8529;48.108;-1.706;2023-05-10T11:20:52;3.47;;;1.85;;
16824;SDS011;8529;48.108;-1.706;2023-05-10T11:23:23;4.18;;;1.38;;
16824;SDS011;8529;48.108;-1.706;2023-05-10T11:25:55;3.78;;;1.90;;
16824;SDS011;8529;48.108;-1.706;2023-05-10T11:28:22;5.35;;;2.50;;
16824;SDS011;8529;48.108;-1.706;2023-05-10T11:30:49;5.65;;;1.65;;
16824;SDS011;8529;48.108;-1.706;2023-05-10T11:33:17;5.78;;;1.45;;
16824;SDS011;8529;48.108;-1.706;2023-05-10T11:35:46;2.42;;;1.35;;
16824;SDS011;8529;48.108;-1.706;2023-05-10T11:38:13;2.35;;;0.63;;
16824;SDS011;8529;48.108;-1.706;2023-05-10T11:40:41;0.68;;;0.60;;
16824;SDS011;8529;48.108;-1.706;2023-05-10T11:43:08;1.38;;;0.85;;
16824;SDS011;8529;48.108;-1.706;2023-05-10T11:45:36;3.10;;;0.90;;
16824;SDS011;8529;48.108;-1.706;2023-05-10T11:48:04;1.17;;;0.82;;
16824;SDS011;8529;48.108;-1.706;2023-05-10T11:50:31;2.05;;;1.00;;
16824;SDS011;8529;48.108;-1.706;2023-05-10T11:53:00;2.38;;;0.90;;
16824;SDS011;8529;48.108;-1.706;2023-05-10T11:55:27;5.78;;;1.55;;
16824;SDS011;8529;48.108;-1.706;2023-05-10T11:57:55;3.17;;;1.48;;
16824;SDS011;8529;48.108;-1.706;2023-05-10T12:00:26;2.58;;;1.50;;
16824;SDS011;8529;48.108;-1.706;2023-05-10T12:02:53;4.70;;;1.80;;
16824;SDS011;8529;48.108;-1.706;2023-05-10T12:05:20;2.97;;;1.40;;
16824;SDS011;8529;48.108;-1.706;2023-05-10T12:07:47;4.30;;;1.60;;
16824;SDS011;8529;48.108;-1.706;2023-05-10T12:10:15;3.15;;;1.27;;
16824;SDS011;8529;48.108;-1.706;2023-05-10T12:12:51;4.05;;;1.58;;
16824;SDS011;8529;48.108;-1.706;2023-05-10T12:15:19;4.93;;;1.55;;
16824;SDS011;8529;48.108;-1.706;2023-05-10T12:17:47;3.92;;;1.50;;
16824;SDS011;8529;48.108;-1.706;2023-05-10T12:20:17;3.28;;;1.33;;
16824;SDS011;8529;48.108;-1.706;2023-05-10T12:22:49;5.72;;;1.90;;
16824;SDS011;8529;48.108;-1.706;2023-05-10T12:25:18;2.78;;;1.58;;
16824;SDS011;8529;48.108;-1.706;2023-05-10T12:27:50;4.00;;;2.13;;
16824;SDS011;8529;48.108;-1.706;2023-05-10T12:30:21;4.90;;;1.50;;
16824;SDS011;8529;48.108;-1.706;2023-05-10T12:32:49;6.72;;;2.13;;
16824;SDS011;8529;48.108;-1.706;2023-05-10T12:35:17;5.38;;;1.90;;
16824;SDS011;8529;48.108;-1.706;2023-05-10T12:37:47;7.22;;;2.38;;
16824;SDS011;8529;48.108;-1.706;2023-05-10T12:40:14;3.22;;;1.88;;
16824;SDS011;8529;48.108;-1.706;2023-05-10T12:42:42;7.10;;;2.00;;
16824;SDS011;8529;48.108;-1.706;2023-05-10T12:45:10;7.88;;;2.17;;
16824;SDS011;8529;48.108;-1.706;2023-05-10T12:47:38;6.13;;;2.42;;
16824;SDS011;8529;48.108;-1.706;2023-05-10T12:50:05;7.93;;;2.90;;
16824;SDS011;8529;48.108;-1.706;2023-05-10T12:52:32;7.65;;;2.80;;
16824;SDS011;8529;48.108;-1.706;2023-05-10T12:55:00;4.88;;;2.70;;
16824;SDS011;8529;48.108;-1.706;2023-05-10T12:57:28;5.35;;;2.50;;
16824;SDS011;8529;48.108;-1.706;2023-05-10T12:59:57;6.10;;;2.88;;
16824;SDS011;8529;48.108;-1.706;2023-05-10T13:02:23;5.28;;;2.70;;
16824;SDS011;8529;48.108;-1.706;2023-05-10T13:04:50;9.18;;;2.70;;
16824;SDS011;8529;48.108;-1.706;2023-05-10T13:07:17;5.03;;;2.60;;
16824;SDS011;8529;48.108;-1.706;2023-05-10T13:09:44;4.85;;;2.28;;
16824;SDS011;8529;48.108;-1.706;2023-05-10T13:12:11;4.20;;;2.00;;
16824;SDS011;8529;48.108;-1.706;2023-05-10T13:14:38;7.60;;;2.13;;
16824;SDS011;8529;48.108;-1.706;2023-05-10T13:17:07;5.88;;;2.33;;
16824;SDS011;8529;48.108;-1.706;2023-05-10T13:19:34;3.90;;;2.00;;
16824;SDS011;8529;48.108;-1.706;2023-05-10T13:22:01;4.78;;;2.15;;
16824;SDS011;8529;48.108;-1.706;2023-05-10T13:24:28;6.00;;;2.20;;
16824;SDS011;8529;48.108;-1.706;2023-05-10T13:26:55;5.53;;;1.60;;
16824;SDS011;8529;48.108;-1.706;2023-05-10T13:29:22;5.63;;;1.90;;
16824;SDS011;8529;48.108;-1.706;2023-05-10T13:31:49;4.35;;;1.98;;
16824;SDS011;8529;48.108;-1.706;2023-05-10T13:34:17;4.32;;;1.80;;
16824;SDS011;8529;48.108;-1.706;2023-05-10T13:36:46;8.82;;;1.85;;
16824;SDS011;8529;48.108;-1.706;2023-05-10T13:39:13;6.22;;;1.50;;
16824;SDS011;8529;48.108;-1.706;2023-05-10T13:41:40;2.92;;;1.73;;
16824;SDS011;8529;48.108;-1.706;2023-05-10T13:44:08;4.28;;;1.50;;
16824;SDS011;8529;48.108;-1.706;2023-05-10T13:46:35;4.75;;;1.52;;
16824;SDS011;8529;48.108;-1.706;2023-05-10T13:49:02;5.32;;;1.40;;
16824;SDS011;8529;48.108;-1.706;2023-05-10T13:51:31;5.07;;;1.70;;
16824;SDS011;8529;48.108;-1.706;2023-05-10T13:53:58;2.40;;;1.20;;
16824;SDS011;8529;48.108;-1.706;2023-05-10T13:56:25;2.45;;;1.00;;
16824;SDS011;8529;48.108;-1.706;2023-05-10T13:58:52;3.50;;;1.00;;
16824;SDS011;8529;48.108;-1.706;2023-05-10T14:01:19;7.45;;;1.90;;
16824;SDS011;8529;48.108;-1.706;2023-05-10T14:03:45;5.85;;;1.48;;
16824;SDS011;8529;48.108;-1.706;2023-05-10T14:06:13;3.30;;;1.50;;
16824;SDS011;8529;48.108;-1.706;2023-05-10T14:08:41;2.50;;;1.75;;
16824;SDS011;8529;48.108;-1.706;2023-05-10T14:11:08;4.47;;;2.40;;
16824;SDS011;8529;48.108;-1.706;2023-05-10T14:13:35;2.83;;;1.88;;
16824;SDS011;8529;48.108;-1.706;2023-05-10T14:16:02;3.67;;;1.35;;
16824;SDS011;8529;48.108;-1.706;2023-05-10T14:18:29;5.53;;;1.60;;
16824;SDS011;8529;48.108;-1.706;2023-05-10T14:20:56;3.10;;;1.95;;
16824;SDS011;8529;48.108;-1.706;2023-05-10T14:23:23;3.20;;;1.90;;
16824;SDS011;8529;48.108;-1.706;2023-05-10T14:25:52;7.22;;;2.33;;
16824;SDS011;8529;48.108;-1.706;2023-05-10T14:28:19;5.75;;;1.90;;
16824;SDS011;8529;48.108;-1.706;2023-05-10T14:30:46;3.55;;;1.77;;
16824;SDS011;8529;48.108;-1.706;2023-05-10T14:33:13;3.80;;;1.83;;
16824;SDS011;8529;48.108;-1.706;2023-05-10T14:35:39;5.53;;;1.52;;
16824;SDS011;8529;48.108;-1.706;2023-05-10T14:38:07;5.32;;;2.00;;
16824;SDS011;8529;48.108;-1.706;2023-05-10T14:40:34;4.70;;;2.15;;
16824;SDS011;8529;48.108;-1.706;2023-05-10T14:43:02;3.95;;;1.60;;
16824;SDS011;8529;48.108;-1.706;2023-05-10T14:45:29;4.07;;;2.00;;
16824;SDS011;8529;48.108;-1.706;2023-05-10T14:47:56;3.30;;;1.77;;
16824;SDS011;8529;48.108;-1.706;2023-05-10T14:50:24;4.50;;;1.65;;
16824;SDS011;8529;48.108;-1.706;2023-05-10T14:52:51;4.50;;;2.05;;
16824;SDS011;8529;48.108;-1.706;2023-05-10T14:55:17;5.07;;;1.98;;
16824;SDS011;8529;48.108;-1.706;2023-05-10T14:57:45;8.85;;;2.35;;